sensor_id;sensor_type;location;lat;lon;timestamp;pressure;altitude;pressure_sealevel;temperature;humidity
84712;BME280;74937;44.534;18.684;2024-02-26T00:01:32;98104.91;;;9.88;83.29
84712;BME280;74937;44.534;18.684;2024-02-26T00:03:59;98093.38;;;9.79;83.17
84712;BME280;74937;44.534;18.684;2024-02-26T00:06:25;98089.03;;;9.69;83.86
84712;BME280;74937;44.534;18.684;2024-02-26T00:08:51;98085.00;;;9.65;84.87
84712;BME280;74937;44.534;18.684;2024-02-26T00:11:16;98084.06;;;9.66;84.42
84712;BME280;74937;44.534;18.684;2024-02-26T00:13:42;98085.13;;;9.63;84.60
84712;BME280;74937;44.534;18.684;2024-02-26T00:16:08;98080.59;;;9.65;84.46
84712;BME280;74937;44.534;18.684;2024-02-26T00:18:33;98087.50;;;9.66;83.78
84712;BME280;74937;44.534;18.684;2024-02-26T00:20:59;98082.13;;;9.68;83.78
84712;BME280;74937;44.534;18.684;2024-02-26T00:23:25;98078.38;;;9.70;83.39
84712;BME280;74937;44.534;18.684;2024-02-26T00:25:52;98072.69;;;9.65;83.14
84712;BME280;74937;44.534;18.684;2024-02-26T00:28:17;98081.81;;;9.61;83.54
84712;BME280;74937;44.534;18.684;2024-02-26T00:30:46;98082.63;;;9.62;83.83
84712;BME280;74937;44.534;18.684;2024-02-26T00:33:11;98077.34;;;9.52;83.84
84712;BME280;74937;44.534;18.684;2024-02-26T00:35:37;98080.66;;;9.54;83.43
84712;BME280;74937;44.534;18.684;2024-02-26T00:38:03;98078.19;;;9.52;83.08
84712;BME280;74937;44.534;18.684;2024-02-26T00:40:29;98064.44;;;9.49;83.63
84712;BME280;74937;44.534;18.684;2024-02-26T00:42:55;98072.63;;;9.46;83.24
84712;BME280;74937;44.534;18.684;2024-02-26T00:45:21;98075.25;;;9.46;83.43
84712;BME280;74937;44.534;18.684;2024-02-26T00:47:46;98068.75;;;9.50;82.68
84712;BME280;74937;44.534;18.684;2024-02-26T00:50:14;98059.88;;;9.51;82.71
84712;BME280;74937;44.534;18.684;2024-02-26T00:52:40;98059.19;;;9.49;82.69
84712;BME280;74937;44.534;18.684;2024-02-26T00:55:06;98051.81;;;9.43;83.04
84712;BME280;74937;44.534;18.684;2024-02-26T00:57:33;98048.34;;;9.42;83.14
84712;BME280;74937;44.534;18.684;2024-02-26T00:59:58;98060.41;;;9.45;83.11
84712;BME280;74937;44.534;18.684;2024-02-26T01:02:24;98044.63;;;9.45;83.05
84712;BME280;74937;44.534;18.684;2024-02-26T01:04:50;98043.53;;;9.47;83.08
84712;BME280;74937;44.534;18.684;2024-02-26T01:07:16;98046.03;;;9.49;83.25
84712;BME280;74937;44.534;18.684;2024-02-26T01:09:42;98047.69;;;9.50;83.28
84712;BME280;74937;44.534;18.684;2024-02-26T01:12:07;98037.91;;;9.52;83.45
84712;BME280;74937;44.534;18.684;2024-02-26T01:14:33;98035.97;;;9.54;82.47
84712;BME280;74937;44.534;18.684;2024-02-26T01:16:59;98029.03;;;9.53;82.46
84712;BME280;74937;44.534;18.684;2024-02-26T01:19:25;98033.06;;;9.57;82.31
84712;BME280;74937;44.534;18.684;2024-02-26T01:21:50;98033.19;;;9.56;82.40
84712;BME280;74937;44.534;18.684;2024-02-26T01:24:16;98031.66;;;9.53;82.26
84712;BME280;74937;44.534;18.684;2024-02-26T01:26:42;98029.16;;;9.51;82.46
84712;BME280;74937;44.534;18.684;2024-02-26T01:29:08;98027.09;;;9.55;82.61
84712;BME280;74937;44.534;18.684;2024-02-26T01:31:34;98032.22;;;9.57;82.71
84712;BME280;74937;44.534;18.684;2024-02-26T01:34:00;98032.94;;;9.59;82.10
84712;BME280;74937;44.534;18.684;2024-02-26T01:36:25;98027.25;;;9.54;82.09
84712;BME280;74937;44.534;18.684;2024-02-26T01:38:51;98021.16;;;9.53;82.02
84712;BME280;74937;44.534;18.684;2024-02-26T01:41:17;98033.56;;;9.51;81.97
84712;BME280;74937;44.534;18.684;2024-02-26T01:43:42;98030.00;;;9.52;81.79
84712;BME280;74937;44.534;18.684;2024-02-26T01:46:13;98037.44;;;9.47;82.27
84712;BME280;74937;44.534;18.684;2024-02-26T01:48:44;98036.63;;;9.46;82.49
84712;BME280;74937;44.534;18.684;2024-02-26T01:51:12;98023.34;;;9.48;82.03
84712;BME280;74937;44.534;18.684;2024-02-26T01:53:39;98032.06;;;9.48;82.21
84712;BME280;74937;44.534;18.684;2024-02-26T01:56:06;98026.94;;;9.47;82.02
84712;BME280;74937;44.534;18.684;2024-02-26T01:58:32;98025.28;;;9.46;82.53
84712;BME280;74937;44.534;18.684;2024-02-26T02:01:00;98016.66;;;9.44;83.22
84712;BME280;74937;44.534;18.684;2024-02-26T02:03:26;98028.28;;;9.41;82.97
84712;BME280;74937;44.534;18.684;2024-02-26T02:05:52;98030.78;;;9.43;82.83
84712;BME280;74937;44.534;18.684;2024-02-26T02:08:18;98029.13;;;9.42;83.02
84712;BME280;74937;44.534;18.684;2024-02-26T02:10:44;98028.69;;;9.37;83.33
84712;BME280;74937;44.534;18.684;2024-02-26T02:13:13;98033.78;;;9.38;82.84
84712;BME280;74937;44.534;18.684;2024-02-26T02:15:39;98028.50;;;9.29;83.43
84712;BME280;74937;44.534;18.684;2024-02-26T02:18:05;98030.69;;;9.23;83.60
84712;BME280;74937;44.534;18.684;2024-02-26T02:20:32;98025.13;;;9.17;83.68
84712;BME280;74937;44.534;18.684;2024-02-26T02:22:59;98015.97;;;9.11;84.48
84712;BME280;74937;44.534;18.684;2024-02-26T02:25:25;98018.84;;;9.08;83.28
84712;BME280;74937;44.534;18.684;2024-02-26T02:27:53;98013.59;;;9.08;83.59
84712;BME280;74937;44.534;18.684;2024-02-26T02:30:20;98016.59;;;9.04;83.86
84712;BME280;74937;44.534;18.684;2024-02-26T02:32:46;98017.56;;;9.03;83.80
84712;BME280;74937;44.534;18.684;2024-02-26T02:35:11;98012.19;;;9.04;83.84
84712;BME280;74937;44.534;18.684;2024-02-26T02:37:37;98018.41;;;9.03;84.08
84712;BME280;74937;44.534;18.684;2024-02-26T02:40:03;98031.97;;;8.66;83.14
84712;BME280;74937;44.534;18.684;2024-02-26T02:42:30;98031.22;;;8.55;85.47
84712;BME280;74937;44.534;18.684;2024-02-26T02:44:56;98036.34;;;8.56;86.21
84712;BME280;74937;44.534;18.684;2024-02-26T02:47:22;98025.84;;;8.56;86.84
84712;BME280;74937;44.534;18.684;2024-02-26T02:49:47;98024.75;;;8.59;85.63
84712;BME280;74937;44.534;18.684;2024-02-26T02:52:13;98029.78;;;8.07;86.68
84712;BME280;74937;44.534;18.684;2024-02-26T02:54:39;98017.13;;;8.24;87.14
84712;BME280;74937;44.534;18.684;2024-02-26T02:57:07;98010.75;;;8.26;86.78
84712;BME280;74937;44.534;18.684;2024-02-26T02:59:33;98007.31;;;8.37;85.60
84712;BME280;74937;44.534;18.684;2024-02-26T03:01:59;98001.44;;;8.33;85.95
84712;BME280;74937;44.534;18.684;2024-02-26T03:04:24;98007.31;;;8.37;84.54
84712;BME280;74937;44.534;18.684;2024-02-26T03:06:50;98005.97;;;7.99;86.39
84712;BME280;74937;44.534;18.684;2024-02-26T03:09:16;98006.31;;;7.95;88.53
84712;BME280;74937;44.534;18.684;2024-02-26T03:11:41;97997.09;;;7.68;89.29
84712;BME280;74937;44.534;18.684;2024-02-26T03:14:07;98001.22;;;7.82;88.02
84712;BME280;74937;44.534;18.684;2024-02-26T03:16:34;98004.44;;;7.85;87.41
84712;BME280;74937;44.534;18.684;2024-02-26T03:18:59;98001.00;;;7.85;86.75
84712;BME280;74937;44.534;18.684;2024-02-26T03:21:25;98007.41;;;7.92;85.93
84712;BME280;74937;44.534;18.684;2024-02-26T03:23:51;98004.31;;;7.87;86.47
84712;BME280;74937;44.534;18.684;2024-02-26T03:26:17;97998.59;;;7.93;86.22
84712;BME280;74937;44.534;18.684;2024-02-26T03:28:42;98004.44;;;7.97;85.57
84712;BME280;74937;44.534;18.684;2024-02-26T03:31:08;97998.31;;;8.07;85.50
84712;BME280;74937;44.534;18.684;2024-02-26T03:33:34;97993.88;;;8.08;84.44
84712;BME280;74937;44.534;18.684;2024-02-26T03:35:59;98002.94;;;8.15;83.80
84712;BME280;74937;44.534;18.684;2024-02-26T03:38:25;97995.91;;;8.15;84.15
84712;BME280;74937;44.534;18.684;2024-02-26T03:40:51;97992.06;;;8.20;83.65
84712;BME280;74937;44.534;18.684;2024-02-26T03:43:17;97986.25;;;8.16;84.05
84712;BME280;74937;44.534;18.684;2024-02-26T03:45:42;97993.72;;;8.21;82.98
84712;BME280;74937;44.534;18.684;2024-02-26T03:48:08;97990.91;;;8.12;84.17
84712;BME280;74937;44.534;18.684;2024-02-26T03:50:34;97989.47;;;8.08;83.79
84712;BME280;74937;44.534;18.684;2024-02-26T03:53:00;97988.97;;;8.14;83.69
84712;BME280;74937;44.534;18.684;2024-02-26T03:55:25;97985.66;;;8.12;83.79
84712;BME280;74937;44.534;18.684;2024-02-26T03:57:51;97997.09;;;8.11;84.26
84712;BME280;74937;44.534;18.684;2024-02-26T04:00:17;97999.47;;;8.14;84.16
84712;BME280;74937;44.534;18.684;2024-02-26T04:02:43;97989.31;;;8.21;83.45
84712;BME280;74937;44.534;18.684;2024-02-26T04:05:10;97997.06;;;8.23;83.78
84712;BME280;74937;44.534;18.684;2024-02-26T04:07:36;97993.22;;;8.27;82.81
84712;BME280;74937;44.534;18.684;2024-02-26T04:10:01;97998.81;;;8.33;82.21
84712;BME280;74937;44.534;18.684;2024-02-26T04:12:30;97988.59;;;8.19;82.06
84712;BME280;74937;44.534;18.684;2024-02-26T04:15:14;97991.22;;;8.19;82.08
84712;BME280;74937;44.534;18.684;2024-02-26T04:17:40;97989.84;;;8.15;82.27
84712;BME280;74937;44.534;18.684;2024-02-26T04:20:07;97993.28;;;8.15;82.21
84712;BME280;74937;44.534;18.684;2024-02-26T04:22:33;97991.84;;;8.11;82.96
84712;BME280;74937;44.534;18.684;2024-02-26T04:24:58;97991.16;;;8.09;82.79
84712;BME280;74937;44.534;18.684;2024-02-26T04:27:24;97997.81;;;8.13;83.21
84712;BME280;74937;44.534;18.684;2024-02-26T04:29:50;97994.69;;;8.20;82.24
84712;BME280;74937;44.534;18.684;2024-02-26T04:32:15;97992.88;;;8.20;81.79
84712;BME280;74937;44.534;18.684;2024-02-26T04:34:41;97987.53;;;8.22;81.33
84712;BME280;74937;44.534;18.684;2024-02-26T04:37:07;97992.53;;;8.25;81.84
84712;BME280;74937;44.534;18.684;2024-02-26T04:39:33;97983.69;;;8.26;81.92
84712;BME280;74937;44.534;18.684;2024-02-26T04:41:58;98005.16;;;8.31;81.61
84712;BME280;74937;44.534;18.684;2024-02-26T04:44:24;98003.50;;;8.30;81.33
84712;BME280;74937;44.534;18.684;2024-02-26T04:46:49;98005.66;;;8.36;80.80
84712;BME280;74937;44.534;18.684;2024-02-26T04:49:15;98002.53;;;8.31;80.79
84712;BME280;74937;44.534;18.684;2024-02-26T04:51:41;97997.78;;;8.25;81.32
84712;BME280;74937;44.534;18.684;2024-02-26T04:54:06;97994.34;;;8.13;81.99
84712;BME280;74937;44.534;18.684;2024-02-26T04:56:32;97994.22;;;8.14;81.95
84712;BME280;74937;44.534;18.684;2024-02-26T04:58:58;97990.75;;;8.14;82.29
84712;BME280;74937;44.534;18.684;2024-02-26T05:01:23;97994.94;;;8.16;81.88
84712;BME280;74937;44.534;18.684;2024-02-26T05:03:49;97989.84;;;8.15;81.75
84712;BME280;74937;44.534;18.684;2024-02-26T05:06:15;98000.06;;;8.18;81.98
84712;BME280;74937;44.534;18.684;2024-02-26T05:08:40;98006.41;;;8.15;81.43
84712;BME280;74937;44.534;18.684;2024-02-26T05:11:06;98003.06;;;8.13;81.96
84712;BME280;74937;44.534;18.684;2024-02-26T05:13:32;98002.97;;;8.04;80.58
84712;BME280;74937;44.534;18.684;2024-02-26T05:15:58;98000.16;;;7.96;79.62
84712;BME280;74937;44.534;18.684;2024-02-26T05:18:23;98003.34;;;7.88;80.20
84712;BME280;74937;44.534;18.684;2024-02-26T05:20:49;97999.53;;;7.92;80.07
84712;BME280;74937;44.534;18.684;2024-02-26T05:23:16;98004.09;;;7.90;79.37
84712;BME280;74937;44.534;18.684;2024-02-26T05:25:42;98010.53;;;7.86;80.29
84712;BME280;74937;44.534;18.684;2024-02-26T05:28:07;98009.81;;;7.84;80.12
84712;BME280;74937;44.534;18.684;2024-02-26T05:30:33;98013.50;;;7.81;80.98
84712;BME280;74937;44.534;18.684;2024-02-26T05:32:59;98018.19;;;7.78;81.08
84712;BME280;74937;44.534;18.684;2024-02-26T05:35:26;98025.69;;;7.82;81.94
84712;BME280;74937;44.534;18.684;2024-02-26T05:37:52;98023.16;;;7.92;80.91
84712;BME280;74937;44.534;18.684;2024-02-26T05:40:18;98021.25;;;7.94;81.64
84712;BME280;74937;44.534;18.684;2024-02-26T05:42:43;98022.41;;;8.01;80.73
84712;BME280;74937;44.534;18.684;2024-02-26T05:45:12;98025.06;;;7.90;80.59
84712;BME280;74937;44.534;18.684;2024-02-26T05:47:37;98031.50;;;7.86;81.66
84712;BME280;74937;44.534;18.684;2024-02-26T05:50:11;98023.91;;;7.83;81.62
84712;BME280;74937;44.534;18.684;2024-02-26T05:52:38;98033.78;;;7.91;80.13
84712;BME280;74937;44.534;18.684;2024-02-26T05:55:04;98032.34;;;7.86;79.44
84712;BME280;74937;44.534;18.684;2024-02-26T05:57:31;98028.19;;;7.84;80.36
84712;BME280;74937;44.534;18.684;2024-02-26T05:59:57;98036.28;;;7.92;79.26
84712;BME280;74937;44.534;18.684;2024-02-26T06:02:26;98032.94;;;7.90;80.61
84712;BME280;74937;44.534;18.684;2024-02-26T06:04:51;98035.81;;;7.87;80.00
84712;BME280;74937;44.534;18.684;2024-02-26T06:07:17;98042.63;;;7.89;78.80
84712;BME280;74937;44.534;18.684;2024-02-26T06:09:43;98036.97;;;7.94;79.68
84712;BME280;74937;44.534;18.684;2024-02-26T06:12:08;98040.53;;;8.04;79.72
84712;BME280;74937;44.534;18.684;2024-02-26T06:14:34;98037.94;;;8.04;80.47
84712;BME280;74937;44.534;18.684;2024-02-26T06:16:59;98038.88;;;8.03;80.70
84712;BME280;74937;44.534;18.684;2024-02-26T06:19:25;98051.75;;;8.06;81.20
84712;BME280;74937;44.534;18.684;2024-02-26T06:21:51;98054.38;;;8.06;80.91
84712;BME280;74937;44.534;18.684;2024-02-26T06:24:16;98052.34;;;8.10;81.62
84712;BME280;74937;44.534;18.684;2024-02-26T06:26:42;98042.56;;;8.12;80.41
84712;BME280;74937;44.534;18.684;2024-02-26T06:29:08;98046.97;;;8.11;80.67
84712;BME280;74937;44.534;18.684;2024-02-26T06:31:33;98054.72;;;8.13;81.11
84712;BME280;74937;44.534;18.684;2024-02-26T06:33:59;98047.66;;;8.13;80.42
84712;BME280;74937;44.534;18.684;2024-02-26T06:36:25;98047.44;;;8.16;80.21
84712;BME280;74937;44.534;18.684;2024-02-26T06:38:51;98047.09;;;8.10;80.56
84712;BME280;74937;44.534;18.684;2024-02-26T06:41:19;98058.69;;;7.96;80.70
84712;BME280;74937;44.534;18.684;2024-02-26T06:43:45;98058.69;;;7.96;81.13
84712;BME280;74937;44.534;18.684;2024-02-26T06:46:11;98067.28;;;7.98;79.79
84712;BME280;74937;44.534;18.684;2024-02-26T06:48:36;98061.75;;;8.01;78.72
84712;BME280;74937;44.534;18.684;2024-02-26T06:51:02;98058.69;;;7.96;78.88
84712;BME280;74937;44.534;18.684;2024-02-26T06:53:28;98065.59;;;7.97;79.20
84712;BME280;74937;44.534;18.684;2024-02-26T06:55:54;98060.72;;;8.04;78.91
84712;BME280;74937;44.534;18.684;2024-02-26T06:58:19;98066.19;;;8.01;78.71
84712;BME280;74937;44.534;18.684;2024-02-26T07:00:45;98054.38;;;8.06;77.74
84712;BME280;74937;44.534;18.684;2024-02-26T07:03:11;98055.81;;;7.88;77.74
84712;BME280;74937;44.534;18.684;2024-02-26T07:05:39;98057.75;;;7.86;79.16
84712;BME280;74937;44.534;18.684;2024-02-26T07:08:05;98056.09;;;7.85;78.78
84712;BME280;74937;44.534;18.684;2024-02-26T07:10:30;98055.81;;;7.99;79.01
84712;BME280;74937;44.534;18.684;2024-02-26T07:12:56;98054.72;;;8.13;77.86
84712;BME280;74937;44.534;18.684;2024-02-26T07:15:22;98063.41;;;8.25;76.71
84712;BME280;74937;44.534;18.684;2024-02-26T07:17:47;98061.47;;;8.27;76.65
84712;BME280;74937;44.534;18.684;2024-02-26T07:20:15;98062.91;;;8.31;76.77
84712;BME280;74937;44.534;18.684;2024-02-26T07:22:41;98063.47;;;8.34;76.60
84712;BME280;74937;44.534;18.684;2024-02-26T07:25:08;98060.38;;;8.40;76.60
84712;BME280;74937;44.534;18.684;2024-02-26T07:27:34;98071.69;;;8.52;75.67
84712;BME280;74937;44.534;18.684;2024-02-26T07:30:00;98080.22;;;8.65;75.31
84712;BME280;74937;44.534;18.684;2024-02-26T07:32:25;98084.84;;;8.73;74.91
84712;BME280;74937;44.534;18.684;2024-02-26T07:34:51;98071.09;;;8.81;74.85
84712;BME280;74937;44.534;18.684;2024-02-26T07:37:17;98071.03;;;8.92;74.17
84712;BME280;74937;44.534;18.684;2024-02-26T07:39:42;98077.44;;;8.99;74.12
84712;BME280;74937;44.534;18.684;2024-02-26T07:42:08;98079.09;;;8.79;74.63
84712;BME280;74937;44.534;18.684;2024-02-26T07:44:34;98081.34;;;8.84;75.48
84712;BME280;74937;44.534;18.684;2024-02-26T07:46:59;98076.78;;;8.86;75.44
84712;BME280;74937;44.534;18.684;2024-02-26T07:49:25;98083.19;;;8.93;75.40
84712;BME280;74937;44.534;18.684;2024-02-26T07:51:51;98078.41;;;8.98;75.02
84712;BME280;74937;44.534;18.684;2024-02-26T07:54:16;98078.59;;;9.06;74.55
84712;BME280;74937;44.534;18.684;2024-02-26T07:56:42;98086.16;;;9.20;73.93
84712;BME280;74937;44.534;18.684;2024-02-26T07:59:07;98075.84;;;9.29;73.43
84712;BME280;74937;44.534;18.684;2024-02-26T08:01:33;98080.88;;;9.41;73.57
84712;BME280;74937;44.534;18.684;2024-02-26T08:03:59;98087.06;;;9.61;72.93
84712;BME280;74937;44.534;18.684;2024-02-26T08:06:25;98080.91;;;9.82;72.38
84712;BME280;74937;44.534;18.684;2024-02-26T08:08:51;98093.00;;;9.94;71.95
84712;BME280;74937;44.534;18.684;2024-02-26T08:11:17;98090.28;;;10.05;71.00
84712;BME280;74937;44.534;18.684;2024-02-26T08:13:42;98097.50;;;10.22;70.90
84712;BME280;74937;44.534;18.684;2024-02-26T08:16:08;98086.75;;;10.35;70.56
84712;BME280;74937;44.534;18.684;2024-02-26T08:18:34;98084.84;;;10.37;69.90
84712;BME280;74937;44.534;18.684;2024-02-26T08:21:00;98087.59;;;10.36;71.35
84712;BME280;74937;44.534;18.684;2024-02-26T08:23:25;98083.34;;;10.64;70.30
84712;BME280;74937;44.534;18.684;2024-02-26T08:25:51;98076.53;;;10.90;69.56
84712;BME280;74937;44.534;18.684;2024-02-26T08:28:17;98085.13;;;11.11;67.69
84712;BME280;74937;44.534;18.684;2024-02-26T08:30:44;98078.25;;;11.38;67.03
84712;BME280;74937;44.534;18.684;2024-02-26T08:33:09;98074.72;;;11.57;66.37
84712;BME280;74937;44.534;18.684;2024-02-26T08:35:36;98078.97;;;11.77;65.95
84712;BME280;74937;44.534;18.684;2024-02-26T08:38:01;98078.91;;;11.97;65.15
84712;BME280;74937;44.534;18.684;2024-02-26T08:40:29;98076.56;;;12.21;64.22
84712;BME280;74937;44.534;18.684;2024-02-26T08:42:54;98074.91;;;12.38;63.98
84712;BME280;74937;44.534;18.684;2024-02-26T08:45:21;98081.41;;;12.43;63.55
84712;BME280;74937;44.534;18.684;2024-02-26T08:47:47;98077.88;;;12.53;63.78
84712;BME280;74937;44.534;18.684;2024-02-26T08:50:13;98080.81;;;12.49;64.46
84712;BME280;74937;44.534;18.684;2024-02-26T08:52:39;98073.34;;;12.63;64.13
84712;BME280;74937;44.534;18.684;2024-02-26T08:55:06;98067.59;;;12.85;63.14
84712;BME280;74937;44.534;18.684;2024-02-26T08:57:34;98072.25;;;13.09;61.87
84712;BME280;74937;44.534;18.684;2024-02-26T09:00:00;98066.81;;;13.11;61.57
84712;BME280;74937;44.534;18.684;2024-02-26T09:02:26;98068.22;;;13.23;61.65
84712;BME280;74937;44.534;18.684;2024-02-26T09:04:52;98059.25;;;13.68;61.46
84712;BME280;74937;44.534;18.684;2024-02-26T09:07:20;98053.06;;;14.35;58.43
84712;BME280;74937;44.534;18.684;2024-02-26T09:09:46;98053.81;;;14.95;55.91
84712;BME280;74937;44.534;18.684;2024-02-26T09:12:12;98048.28;;;15.37;55.70
84712;BME280;74937;44.534;18.684;2024-02-26T09:14:38;98042.88;;;15.86;54.74
84712;BME280;74937;44.534;18.684;2024-02-26T09:17:03;98041.34;;;16.31;53.74
84712;BME280;74937;44.534;18.684;2024-02-26T09:19:31;98048.75;;;16.66;52.30
84712;BME280;74937;44.534;18.684;2024-02-26T09:21:56;98041.13;;;17.09;51.48
84712;BME280;74937;44.534;18.684;2024-02-26T09:24:24;98035.09;;;17.45;49.75
84712;BME280;74937;44.534;18.684;2024-02-26T09:26:50;98031.28;;;17.62;49.72
84712;BME280;74937;44.534;18.684;2024-02-26T09:29:16;98028.44;;;17.78;49.09
84712;BME280;74937;44.534;18.684;2024-02-26T09:31:41;98037.25;;;17.79;49.26
84712;BME280;74937;44.534;18.684;2024-02-26T09:34:07;98025.84;;;17.85;49.20
84712;BME280;74937;44.534;18.684;2024-02-26T09:36:33;98022.34;;;18.14;49.79
84712;BME280;74937;44.534;18.684;2024-02-26T09:38:59;98029.41;;;18.43;48.63
84712;BME280;74937;44.534;18.684;2024-02-26T09:41:28;98027.25;;;18.68;48.00
84712;BME280;74937;44.534;18.684;2024-02-26T09:43:56;98030.41;;;19.00;47.68
84712;BME280;74937;44.534;18.684;2024-02-26T09:46:23;98017.47;;;19.24;47.14
84712;BME280;74937;44.534;18.684;2024-02-26T09:48:50;98018.84;;;19.48;46.38
84712;BME280;74937;44.534;18.684;2024-02-26T09:51:16;98016.72;;;19.65;46.17
84712;BME280;74937;44.534;18.684;2024-02-26T09:53:44;98013.06;;;19.73;45.73
84712;BME280;74937;44.534;18.684;2024-02-26T09:56:14;98016.63;;;19.87;45.37
84712;BME280;74937;44.534;18.684;2024-02-26T09:58:42;98020.19;;;20.00;45.39
84712;BME280;74937;44.534;18.684;2024-02-26T10:01:13;98011.38;;;20.13;45.22
84712;BME280;74937;44.534;18.684;2024-02-26T10:03:42;98013.06;;;20.21;45.19
84712;BME280;74937;44.534;18.684;2024-02-26T10:06:10;98011.44;;;20.33;44.62
84712;BME280;74937;44.534;18.684;2024-02-26T10:08:36;98006.38;;;20.45;43.59
84712;BME280;74937;44.534;18.684;2024-02-26T10:11:10;97997.31;;;20.59;43.73
84712;BME280;74937;44.534;18.684;2024-02-26T10:13:36;98001.28;;;20.70;44.27
84712;BME280;74937;44.534;18.684;2024-02-26T10:16:02;97998.59;;;20.76;43.58
84712;BME280;74937;44.534;18.684;2024-02-26T10:18:53;97994.69;;;20.85;43.90
84712;BME280;74937;44.534;18.684;2024-02-26T10:21:22;97998.38;;;20.98;43.16
84712;BME280;74937;44.534;18.684;2024-02-26T10:23:49;97996.34;;;21.06;43.03
84712;BME280;74937;44.534;18.684;2024-02-26T10:26:16;97999.41;;;21.17;41.84
84712;BME280;74937;44.534;18.684;2024-02-26T10:28:43;97987.06;;;21.29;41.25
84712;BME280;74937;44.534;18.684;2024-02-26T10:31:09;97984.59;;;21.34;39.61
84712;BME280;74937;44.534;18.684;2024-02-26T10:33:36;97975.53;;;21.35;39.41
84712;BME280;74937;44.534;18.684;2024-02-26T10:36:04;97972.22;;;21.39;39.30
84712;BME280;74937;44.534;18.684;2024-02-26T10:38:31;97968.31;;;21.35;38.55
84712;BME280;74937;44.534;18.684;2024-02-26T10:40:57;97972.84;;;21.35;37.49
84712;BME280;74937;44.534;18.684;2024-02-26T10:43:25;97967.47;;;21.35;36.89
84712;BME280;74937;44.534;18.684;2024-02-26T10:45:51;97963.38;;;20.86;36.52
84712;BME280;74937;44.534;18.684;2024-02-26T10:48:17;97960.91;;;20.78;37.91
84712;BME280;74937;44.534;18.684;2024-02-26T10:50:43;97954.72;;;20.91;37.25
84712;BME280;74937;44.534;18.684;2024-02-26T10:53:22;97964.22;;;20.86;36.78
84712;BME280;74937;44.534;18.684;2024-02-26T10:55:52;97958.88;;;20.93;36.75
84712;BME280;74937;44.534;18.684;2024-02-26T10:58:20;97953.06;;;21.03;37.17
84712;BME280;74937;44.534;18.684;2024-02-26T11:00:49;97948.31;;;21.05;36.26
84712;BME280;74937;44.534;18.684;2024-02-26T11:03:15;97940.91;;;21.07;36.72
84712;BME280;74937;44.534;18.684;2024-02-26T11:05:49;97944.81;;;21.11;37.06
84712;BME280;74937;44.534;18.684;2024-02-26T11:08:18;97942.34;;;21.09;36.39
84712;BME280;74937;44.534;18.684;2024-02-26T11:10:50;97934.94;;;20.92;37.11
84712;BME280;74937;44.534;18.684;2024-02-26T11:13:18;97946.47;;;20.92;36.77
84712;BME280;74937;44.534;18.684;2024-02-26T11:15:48;97931.88;;;20.95;37.20
84712;BME280;74937;44.534;18.684;2024-02-26T11:18:19;97936.59;;;20.93;36.48
84712;BME280;74937;44.534;18.684;2024-02-26T11:20:45;97938.88;;;20.76;36.82
84712;BME280;74937;44.534;18.684;2024-02-26T11:23:12;97932.69;;;20.55;37.53
84712;BME280;74937;44.534;18.684;2024-02-26T11:25:38;97930.41;;;20.59;37.56
84712;BME280;74937;44.534;18.684;2024-02-26T11:28:10;97935.97;;;20.64;37.21
84712;BME280;74937;44.534;18.684;2024-02-26T11:30:40;97934.13;;;20.65;37.39
84712;BME280;74937;44.534;18.684;2024-02-26T11:33:10;97919.91;;;20.71;36.92
84712;BME280;74937;44.534;18.684;2024-02-26T11:35:38;97921.56;;;20.65;36.96
84712;BME280;74937;44.534;18.684;2024-02-26T11:38:04;97918.06;;;20.58;37.27
84712;BME280;74937;44.534;18.684;2024-02-26T11:40:32;97922.78;;;20.43;37.43
84712;BME280;74937;44.534;18.684;2024-02-26T11:42:58;97925.88;;;20.46;37.61
84712;BME280;74937;44.534;18.684;2024-02-26T11:48:11;97910.59;;;20.40;37.34
84712;BME280;74937;44.534;18.684;2024-02-26T11:50:39;97913.13;;;20.48;37.14
84712;BME280;74937;44.534;18.684;2024-02-26T11:53:22;97911.06;;;20.64;36.75
84712;BME280;74937;44.534;18.684;2024-02-26T12:01:43;97905.09;;;20.88;36.25
84712;BME280;74937;44.534;18.684;2024-02-26T12:04:18;97899.50;;;20.96;36.15
84712;BME280;74937;44.534;18.684;2024-02-26T12:07:18;97897.88;;;20.95;35.94
84712;BME280;74937;44.534;18.684;2024-02-26T12:09:39;97900.78;;;20.87;36.62
84712;BME280;74937;44.534;18.684;2024-02-26T12:12:11;97896.66;;;20.78;35.96
84712;BME280;74937;44.534;18.684;2024-02-26T12:14:59;97886.16;;;20.70;36.38
84712;BME280;74937;44.534;18.684;2024-02-26T12:17:27;97889.44;;;20.58;36.56
84712;BME280;74937;44.534;18.684;2024-02-26T12:19:53;97892.56;;;20.49;37.44
84712;BME280;74937;44.534;18.684;2024-02-26T12:22:19;97896.25;;;20.48;37.19
84712;BME280;74937;44.534;18.684;2024-02-26T12:24:44;97897.44;;;20.39;37.50
84712;BME280;74937;44.534;18.684;2024-02-26T12:27:10;97887.97;;;20.29;37.21
84712;BME280;74937;44.534;18.684;2024-02-26T12:29:36;97889.44;;;20.45;37.18
84712;BME280;74937;44.534;18.684;2024-02-26T12:32:03;97880.19;;;20.61;36.89
84712;BME280;74937;44.534;18.684;2024-02-26T12:34:30;97882.66;;;20.69;36.82
84712;BME280;74937;44.534;18.684;2024-02-26T12:36:56;97879.78;;;20.64;36.49
84712;BME280;74937;44.534;18.684;2024-02-26T12:39:22;97881.03;;;20.48;36.48
84712;BME280;74937;44.534;18.684;2024-02-26T12:41:48;97887.56;;;20.39;36.51
84712;BME280;74937;44.534;18.684;2024-02-26T12:44:18;97884.28;;;20.30;37.08
84712;BME280;74937;44.534;18.684;2024-02-26T12:46:44;97881.59;;;20.30;37.60
84712;BME280;74937;44.534;18.684;2024-02-26T12:49:15;97888.59;;;20.38;37.52
84712;BME280;74937;44.534;18.684;2024-02-26T12:51:44;97878.69;;;20.25;37.91
84712;BME280;74937;44.534;18.684;2024-02-26T12:54:09;97878.31;;;20.28;38.34
84712;BME280;74937;44.534;18.684;2024-02-26T12:56:35;97882.19;;;20.32;38.06
84712;BME280;74937;44.534;18.684;2024-02-26T12:59:02;97878.09;;;20.43;37.91
84712;BME280;74937;44.534;18.684;2024-02-26T13:01:29;97878.72;;;20.32;37.76
84712;BME280;74937;44.534;18.684;2024-02-26T13:03:56;97876.84;;;20.26;37.65